Carmelia — 5BUA4 — position and weather

sailwx.info

Track history (hours):
 
Tides and Currents Weather Stations Pressure Air Temp Water Temp Dewpoint Dewpoint Depression Visibility Wind Speed Wind Dir Waves Ship Positions

Carmelia

Last reported at 2018-Jun-16 11:16 UTC. Time now 2018-Jun-19 01:24 UTC.
Position N 34°40' E 033°04'.

Length 100 m; draft 5.4 m.

Type: Tanker. MMSI: 209048000.

Date/timePositionNaut miles runAvg speedWind from/ knotsBaromVisibWave heightAir tempDewpointWater temp
2018-Jun-16 11:16N 34°40' E 033°04'0 0.1
2018-Jun-16 10:52N 34°40' E 033°04'0 0.0
2018-Jun-16 10:28N 34°40' E 033°04'0 0.1
2018-Jun-16 09:59N 34°40' E 033°04'0 0.1
2018-Jun-16 09:16N 34°40' E 033°04'0 0.1
2018-Jun-16 08:51N 34°40' E 033°04'0 0.0
2018-Jun-16 00:01N 34°40' E 033°04'0 0.0
2018-Jun-15 23:55N 34°40' E 033°04'0 0.0
2018-Jun-15 19:37N 34°40' E 033°04'0 0.1
2018-Jun-15 19:28N 34°40' E 033°04'  
2018-Jun-10 14:08N 34°40' E 033°04'0 0.0
2018-Jun-10 09:10N 34°40' E 033°04'68 2.6
2018-Jun-09 07:21N 33°43' E 033°49'1910.5
2018-Jun-09 05:30N 33°27' E 034°03'710.7
2018-Jun-09 04:50N 33°21' E 034°07'310.7
2018-Jun-09 04:30N 33°18' E 034°10'39 9.6
2018-Jun-09 00:25N 32°56' E 034°48'510.4
2018-Jun-08 23:59N 32°55' E 034°53'510.5
2018-Jun-08 23:30N 32°52' E 034°58'2 0.1
2018-Jun-08 05:59N 32°51' E 035°01'2 0.3
2018-Jun-07 22:48N 32°53' E 035°01'0 0.0
2018-Jun-07 22:19N 32°53' E 035°01'0 0.0
2018-Jun-07 21:49N 32°53' E 035°01'0 0.0
2018-Jun-07 17:35N 32°53' E 035°01'0 0.0
2018-Jun-07 17:29N 32°53' E 035°01'0 0.0
2018-Jun-07 04:24N 32°53' E 035°01'1 1.7
2018-Jun-07 03:59N 32°53' E 034°60'3 7.0
2018-Jun-07 03:30N 32°52' E 034°56'4 9.0
2018-Jun-07 03:00N 32°54' E 034°51'510.1
2018-Jun-07 02:29N 32°54' E 034°44'710.2
2018-Jun-07 01:45N 32°56' E 034°36'310.1
2018-Jun-07 01:27N 32°56' E 034°32'510.0
2018-Jun-07 00:57N 32°58' E 034°26'610.4
2018-Jun-07 00:23N 33°02' E 034°22'410.3
2018-Jun-07 00:00N 33°06' E 034°20'810.4
2018-Jun-06 23:13N 33°12' E 034°14'410.4
2018-Jun-06 22:50N 33°16' E 034°12'410.3
2018-Jun-06 22:29N 33°19' E 034°09'510.4
2018-Jun-06 22:00N 33°23' E 034°06'92 9.6
2018-Jun-06 12:23N 34°39' E 033°04'  
Track history (hours):
 
Tides and Currents Weather Stations Pressure Air Temp Water Temp Dewpoint Dewpoint Depression Visibility Wind Speed Wind Dir Waves Ship Positions

Carmelia

Last reported at 2018-Jun-16 11:16 UTC. Time now 2018-Jun-19 01:24 UTC.
Position N 34°40' E 033°04'.

Length 100 m; draft 5.4 m.

Type: Tanker. MMSI: 209048000.

Date/timePositionNaut miles runAvg speedWind from/ knotsBaromVisibWave heightAir tempDewpointWater temp
2018-Jun-16 11:16N 34°40' E 033°04'0 0.1
2018-Jun-16 10:52N 34°40' E 033°04'0 0.0
2018-Jun-16 10:28N 34°40' E 033°04'0 0.1
2018-Jun-16 09:59N 34°40' E 033°04'0 0.1
2018-Jun-16 09:16N 34°40' E 033°04'0 0.1
2018-Jun-16 08:51N 34°40' E 033°04'0 0.0
2018-Jun-16 00:01N 34°40' E 033°04'0 0.0
2018-Jun-15 23:55N 34°40' E 033°04'0 0.0
2018-Jun-15 19:37N 34°40' E 033°04'0 0.1
2018-Jun-15 19:28N 34°40' E 033°04'  
2018-Jun-10 14:08N 34°40' E 033°04'0 0.0
2018-Jun-10 09:10N 34°40' E 033°04'68 2.6
2018-Jun-09 07:21N 33°43' E 033°49'1910.5
2018-Jun-09 05:30N 33°27' E 034°03'710.7
2018-Jun-09 04:50N 33°21' E 034°07'310.7
2018-Jun-09 04:30N 33°18' E 034°10'39 9.6
2018-Jun-09 00:25N 32°56' E 034°48'510.4
2018-Jun-08 23:59N 32°55' E 034°53'510.5
2018-Jun-08 23:30N 32°52' E 034°58'2 0.1
2018-Jun-08 05:59N 32°51' E 035°01'2 0.3
2018-Jun-07 22:48N 32°53' E 035°01'0 0.0
2018-Jun-07 22:19N 32°53' E 035°01'0 0.0
2018-Jun-07 21:49N 32°53' E 035°01'0 0.0
2018-Jun-07 17:35N 32°53' E 035°01'0 0.0
2018-Jun-07 17:29N 32°53' E 035°01'0 0.0
2018-Jun-07 04:24N 32°53' E 035°01'1 1.7
2018-Jun-07 03:59N 32°53' E 034°60'3 7.0
2018-Jun-07 03:30N 32°52' E 034°56'4 9.0
2018-Jun-07 03:00N 32°54' E 034°51'510.1
2018-Jun-07 02:29N 32°54' E 034°44'710.2
2018-Jun-07 01:45N 32°56' E 034°36'310.1
2018-Jun-07 01:27N 32°56' E 034°32'510.0
2018-Jun-07 00:57N 32°58' E 034°26'610.4
2018-Jun-07 00:23N 33°02' E 034°22'410.3
2018-Jun-07 00:00N 33°06' E 034°20'810.4
2018-Jun-06 23:13N 33°12' E 034°14'410.4
2018-Jun-06 22:50N 33°16' E 034°12'410.3
2018-Jun-06 22:29N 33°19' E 034°09'510.4
2018-Jun-06 22:00N 33°23' E 034°06'92 9.6
2018-Jun-06 12:23N 34°39' E 033°04'  

Dump ship's entire track history